Enter the Airport ICAO Code

Search by Airport or City

Current Weather

MMMY | General Mariano Escobedo International Airport

Monterrey, Nuevo León, Mexico

Last Update 33 Minutes Ago

Partly Cloudy Sky

Temperature of 17 ºC

Light Winds from NorthWest

Temperature

17 ºC

Dew Point Temperature

12 ºC

Relative Humidity

72.52 %

Wind Direction

NorthWest (310º, Without Significant Variations)

Wind Velocity

7 km/h (04 kt)

Gusts

None

Visibility

Reduced to 15 Miles

Sea Level Pressure

29.73 inHg (Inches of Mercury)

Layers of Clouds

30% to 60% of Sky Covered from 2743 mts (9000 ft) Above Ground Level.

METAR MMMY 160645Z 31004KT 15SM SCT090 17/12 A2973 RMK 8/070

Weather Forecast

MMMY | General Mariano Escobedo International Airport

Monterrey, Nuevo León, Mexico

Forecast valid for the next 29 Hours

From now on it is expected:

Clear Sky

Calm Wind

In 11 hours it is expected the begining of:

Moderate Winds from North

In 22 to 24 hours it is expected the begining of:

Light to Moderate Winds from East

Maximum Temperature

36 ºC in 14 Hours

Minimum Temperature

14 ºC in 5 Hours

TAF MMMY 160515Z 1606/1712 00000KT P6SM SKC TX36/1621Z TN14/1612Z FM161800 36010KT P6SM SKC BECMG 1705/1707 08005KT